< < Back
Terminal Aerodrome Forecast


Current Version              Previous Versions:   1  2  3  4  5  6  7  8  9  

Terminal Aerodrome Forecast

151
FTUS42 KGSP 081731
TAFCLT
TAF
KCLT 081731Z 0818/0918 21009KT P6SM VCSH OVC090
      TEMPO 0818/0822 5SM -SHRA BR SCT030 BKN050 OVC090
     FM090000 28006KT P6SM SCT060 BKN220
     FM091500 28010G15KT P6SM SCT250=

Latest METAR

978
SAUS70 KWBC 090100
MTRCLT
METAR KCLT 090052Z 26005KT 10SM BKN070 BKN085 05/M01 A2967 RMK AO2
SLP049 T00501006


USA.gov is the U.S. government's official web portal to all federal, state and local government web resources and services.